createdAt,value
2018-07-23T00:00:37.084Z,19.61
2018-07-23T00:03:06.469Z,19.61
2018-07-23T00:05:35.778Z,19.63
2018-07-23T00:08:05.991Z,19.63
2018-07-23T00:10:35.554Z,19.56
2018-07-23T00:13:05.345Z,19.54
2018-07-23T00:15:34.949Z,19.47
2018-07-23T00:18:04.436Z,19.44
2018-07-23T00:20:33.860Z,19.40
2018-07-23T00:23:04.216Z,19.41
2018-07-23T00:25:33.614Z,19.42
2018-07-23T00:28:02.950Z,19.41
2018-07-23T00:30:32.833Z,19.37
2018-07-23T00:33:02.637Z,19.42
2018-07-23T00:35:32.127Z,19.46
2018-07-23T00:38:01.859Z,19.48
2018-07-23T00:40:31.439Z,19.49
2018-07-23T00:43:00.999Z,19.46
2018-07-23T00:45:30.820Z,19.41
2018-07-23T00:48:00.727Z,19.45
2018-07-23T00:50:30.028Z,19.45
2018-07-23T00:52:59.677Z,19.41
2018-07-23T00:55:29.410Z,19.44
2018-07-23T00:57:58.835Z,19.44
2018-07-23T01:00:28.454Z,19.46
2018-07-23T01:03:02.281Z,19.46
2018-07-23T01:05:32.281Z,19.43
2018-07-23T01:08:01.602Z,19.49
2018-07-23T01:10:30.902Z,19.49
2018-07-23T01:13:00.737Z,19.53
2018-07-23T01:15:30.086Z,19.44
2018-07-23T01:17:59.590Z,19.46
2018-07-23T01:20:29.905Z,19.47
2018-07-23T01:22:59.257Z,19.45
2018-07-23T01:25:28.766Z,19.41
2018-07-23T01:27:58.715Z,19.44
2018-07-23T01:30:28.218Z,19.48
2018-07-23T01:32:57.508Z,19.44
2018-07-23T01:35:27.515Z,19.40
2018-07-23T01:37:57.080Z,19.44
2018-07-23T01:40:26.649Z,19.41
2018-07-23T01:42:56.332Z,19.42
2018-07-23T01:45:25.964Z,19.36
2018-07-23T01:47:55.342Z,19.36
2018-07-23T01:50:25.182Z,19.44
2018-07-23T01:52:54.738Z,19.47
2018-07-23T01:55:24.109Z,19.47
2018-07-23T01:57:54.094Z,19.50
2018-07-23T02:00:23.754Z,19.46
2018-07-23T02:02:53.188Z,19.41
2018-07-23T02:05:22.922Z,19.35
2018-07-23T02:07:52.745Z,19.37
2018-07-23T02:10:22.080Z,19.43
2018-07-23T02:12:51.670Z,19.49
2018-07-23T02:15:21.125Z,19.47
2018-07-23T02:17:50.588Z,18.55
2018-07-23T02:20:20.262Z,19.37
2018-07-23T02:22:49.974Z,19.33
2018-07-23T02:25:19.484Z,19.33
2018-07-23T02:27:49.253Z,19.33
2018-07-23T02:30:18.744Z,19.35
2018-07-23T02:32:48.232Z,19.33
2018-07-23T02:35:17.810Z,19.31
2018-07-23T02:37:47.346Z,19.30
2018-07-23T02:40:16.960Z,19.34
2018-07-23T02:42:46.693Z,19.36
2018-07-23T02:45:16.197Z,19.35
2018-07-23T02:47:45.760Z,19.31
2018-07-23T02:50:15.370Z,19.34
2018-07-23T02:52:44.867Z,19.37
2018-07-23T02:55:14.602Z,19.36
2018-07-23T02:57:44.069Z,19.44
2018-07-23T03:00:13.533Z,19.48
2018-07-23T03:02:43.299Z,19.29
2018-07-23T03:05:12.908Z,19.44
2018-07-23T03:07:42.221Z,19.46
2018-07-23T03:10:11.810Z,19.42
2018-07-23T03:12:41.427Z,19.45
2018-07-23T03:15:11.076Z,19.40
2018-07-23T03:17:40.547Z,19.41
2018-07-23T03:20:10.344Z,19.41
2018-07-23T03:22:39.501Z,19.42
2018-07-23T03:25:09.048Z,19.38
2018-07-23T03:27:39.023Z,19.50
2018-07-23T03:30:08.722Z,19.53
2018-07-23T03:32:38.168Z,19.59
2018-07-23T03:35:07.637Z,19.60
2018-07-23T03:37:38.454Z,19.54
2018-07-23T03:40:07.934Z,19.54
2018-07-23T03:42:37.413Z,19.57
2018-07-23T03:45:07.632Z,19.49
2018-07-23T03:47:36.990Z,19.56
2018-07-23T03:50:07.376Z,19.62
2018-07-23T03:52:37.009Z,19.67
2018-07-23T03:55:06.532Z,19.66
2018-07-23T03:57:36.316Z,19.60
2018-07-23T04:00:05.957Z,19.59
2018-07-23T04:02:35.525Z,19.53
2018-07-23T04:05:06.393Z,19.55
2018-07-23T04:07:35.850Z,19.51
2018-07-23T04:10:05.904Z,19.59
2018-07-23T04:12:35.511Z,19.54
2018-07-23T04:15:06.203Z,19.55
2018-07-23T04:17:35.644Z,19.62
2018-07-23T04:20:05.534Z,19.65
2018-07-23T04:22:34.840Z,19.68
2018-07-23T04:25:04.386Z,19.67
2018-07-23T04:27:34.247Z,19.62
2018-07-23T04:30:04.369Z,19.61
2018-07-23T04:32:33.896Z,19.61
2018-07-23T04:35:03.644Z,19.68
2018-07-23T04:37:33.140Z,19.65
2018-07-23T04:40:03.021Z,19.58
2018-07-23T04:42:32.821Z,19.63
2018-07-23T04:45:02.372Z,19.68
2018-07-23T04:47:32.280Z,19.71
2018-07-23T04:50:02.436Z,19.64
2018-07-23T04:52:32.245Z,19.58
2018-07-23T04:55:01.620Z,19.58
2018-07-23T04:57:31.330Z,19.65
2018-07-23T05:00:01.176Z,19.72
2018-07-23T05:02:30.744Z,19.73
2018-07-23T05:05:00.477Z,19.69
2018-07-23T05:07:29.907Z,19.70
2018-07-23T05:09:59.252Z,19.66
2018-07-23T05:12:29.158Z,19.47
2018-07-23T05:14:58.436Z,19.59
2018-07-23T05:17:27.721Z,19.71
2018-07-23T05:19:57.524Z,19.74
2018-07-23T05:22:26.843Z,19.73
2018-07-23T05:24:55.994Z,19.70
2018-07-23T05:27:26.025Z,19.72
2018-07-23T05:29:55.482Z,19.79
2018-07-23T05:32:24.848Z,19.82
2018-07-23T05:34:54.685Z,19.85
2018-07-23T05:37:24.303Z,19.82
2018-07-23T05:39:53.952Z,19.73
2018-07-23T05:42:23.772Z,19.64
2018-07-23T05:44:53.479Z,19.62
2018-07-23T05:47:22.998Z,19.67
2018-07-23T05:49:52.712Z,19.74
2018-07-23T05:52:22.743Z,19.74
2018-07-23T05:54:52.135Z,19.68
2018-07-23T05:57:21.428Z,19.71
2018-07-23T05:59:51.048Z,18.71
2018-07-23T06:02:20.540Z,19.75
2018-07-23T06:04:49.859Z,19.85
2018-07-23T06:07:20.060Z,19.86
2018-07-23T06:09:49.771Z,19.87
2018-07-23T06:12:18.978Z,19.91
2018-07-23T06:14:48.425Z,19.76
2018-07-23T06:17:18.000Z,19.62
2018-07-23T06:19:47.088Z,19.68
2018-07-23T06:22:16.776Z,19.87
2018-07-23T06:24:46.316Z,19.91
2018-07-23T06:27:15.689Z,19.96
2018-07-23T06:29:45.366Z,19.94
2018-07-23T06:32:14.984Z,19.91
2018-07-23T06:34:44.631Z,19.99
2018-07-23T06:37:14.102Z,19.96
2018-07-23T06:39:43.676Z,19.98
2018-07-23T06:42:13.232Z,20.01
2018-07-23T06:44:42.904Z,20.02
2018-07-23T06:47:12.940Z,20.08
2018-07-23T06:49:42.364Z,20.06
2018-07-23T06:52:12.146Z,20.03
2018-07-23T06:54:41.829Z,20.06
2018-07-23T06:57:11.910Z,20.20
2018-07-23T06:59:41.615Z,20.26
2018-07-23T07:02:10.936Z,20.24
2018-07-23T07:04:40.685Z,20.19
2018-07-23T07:07:10.338Z,20.15
2018-07-23T07:09:40.058Z,20.16
2018-07-23T07:12:09.928Z,20.11
2018-07-23T07:14:39.473Z,19.88
2018-07-23T07:17:09.143Z,19.97
2018-07-23T07:19:38.849Z,20.12
2018-07-23T07:22:08.519Z,20.07
2018-07-23T07:24:37.810Z,20.16
2018-07-23T07:27:07.318Z,20.31
2018-07-23T07:29:36.702Z,20.42
2018-07-23T07:32:05.963Z,20.38
2018-07-23T07:34:35.677Z,20.23
2018-07-23T07:37:05.902Z,20.48
2018-07-23T07:39:35.280Z,20.56
2018-07-23T07:42:04.963Z,20.80
2018-07-23T07:44:35.005Z,20.71
2018-07-23T07:47:04.496Z,20.68
2018-07-23T07:49:34.227Z,20.69
2018-07-23T07:52:04.550Z,20.75
2018-07-23T07:54:33.900Z,20.74
2018-07-23T07:57:03.621Z,20.76
2018-07-23T07:59:33.340Z,20.95
2018-07-23T08:02:03.598Z,20.95
2018-07-23T08:04:33.543Z,20.89
2018-07-23T08:07:03.456Z,20.92
2018-07-23T08:09:33.028Z,20.84
2018-07-23T08:12:03.051Z,20.86
2018-07-23T08:14:32.440Z,21.14
2018-07-23T08:17:01.809Z,21.18
2018-07-23T08:19:31.554Z,21.28
2018-07-23T08:22:00.927Z,21.30
2018-07-23T08:24:30.556Z,21.23
2018-07-23T08:27:00.308Z,21.19
2018-07-23T08:29:29.857Z,21.09
2018-07-23T08:31:59.582Z,21.13
2018-07-23T08:34:29.372Z,21.17
2018-07-23T08:36:58.835Z,21.16
2018-07-23T08:39:28.817Z,21.24
2018-07-23T08:41:58.563Z,21.15
2018-07-23T08:44:28.338Z,21.31
2018-07-23T08:46:57.912Z,21.33
2018-07-23T08:49:27.743Z,20.97
2018-07-23T08:51:57.404Z,21.00
2018-07-23T08:54:26.892Z,21.01
2018-07-23T08:56:56.564Z,21.01
2018-07-23T08:59:26.370Z,20.99
2018-07-23T09:01:56.071Z,21.20
2018-07-23T09:04:25.514Z,21.00
2018-07-23T09:06:55.431Z,21.19
2018-07-23T09:09:26.021Z,21.38
2018-07-23T09:11:55.941Z,21.26
2018-07-23T09:14:25.526Z,21.10
2018-07-23T09:16:54.802Z,21.43
2018-07-23T09:19:24.779Z,21.63
2018-07-23T09:21:54.358Z,22.07
2018-07-23T09:24:23.865Z,22.41
2018-07-23T09:26:53.794Z,22.22
2018-07-23T09:29:23.109Z,22.02
2018-07-23T09:31:52.427Z,22.24
2018-07-23T09:34:22.472Z,22.08
2018-07-23T09:36:51.820Z,22.10
2018-07-23T09:39:21.378Z,22.12
2018-07-23T09:41:51.239Z,22.25
2018-07-23T09:44:20.707Z,21.97
2018-07-23T09:46:50.171Z,22.39
2018-07-23T09:49:19.826Z,22.55
2018-07-23T09:51:49.438Z,22.28
2018-07-23T09:54:19.046Z,22.11
2018-07-23T09:56:48.923Z,22.15
2018-07-23T09:59:18.751Z,22.01
2018-07-23T10:01:48.065Z,21.98
2018-07-23T10:04:17.625Z,22.10
2018-07-23T10:06:47.275Z,22.35
2018-07-23T10:09:16.512Z,22.03
2018-07-23T10:11:46.226Z,22.03
2018-07-23T10:14:15.966Z,22.23
2018-07-23T10:16:45.626Z,22.31
2018-07-23T10:19:15.147Z,22.26
2018-07-23T10:21:44.831Z,22.30
2018-07-23T10:24:14.259Z,22.61
2018-07-23T10:26:44.389Z,22.72
2018-07-23T10:29:14.258Z,21.69
2018-07-23T10:31:43.682Z,22.47
2018-07-23T10:34:13.006Z,22.55
2018-07-23T10:36:42.986Z,22.33
2018-07-23T10:39:12.287Z,22.19
2018-07-23T10:41:42.085Z,22.49
2018-07-23T10:44:11.583Z,22.81
2018-07-23T10:46:40.890Z,23.02
2018-07-23T10:49:10.519Z,22.85
2018-07-23T10:51:40.285Z,22.76
2018-07-23T10:54:10.055Z,22.78
2018-07-23T10:56:39.715Z,22.77
2018-07-23T10:59:09.129Z,21.09
2018-07-23T11:01:38.756Z,22.33
2018-07-23T11:04:08.513Z,22.40
2018-07-23T11:06:38.034Z,22.11
2018-07-23T11:09:08.796Z,22.15
2018-07-23T11:11:38.589Z,22.09
2018-07-23T11:14:08.495Z,22.28
2018-07-23T11:16:38.224Z,22.48
2018-07-23T11:19:07.645Z,22.48
2018-07-23T11:21:37.455Z,22.61
2018-07-23T11:24:07.189Z,22.51
2018-07-23T11:26:36.649Z,22.62
2018-07-23T11:29:06.325Z,22.39
2018-07-23T11:31:36.013Z,22.52
2018-07-23T11:34:06.781Z,22.29
2018-07-23T11:36:36.210Z,22.56
2018-07-23T11:39:08.347Z,22.62
2018-07-23T11:41:38.108Z,22.44
2018-07-23T11:44:07.617Z,22.57
2018-07-23T11:46:37.037Z,22.65
2018-07-23T11:49:06.892Z,22.71
2018-07-23T11:51:36.443Z,22.61
2018-07-23T11:54:06.187Z,22.75
2018-07-23T11:56:35.843Z,22.90
2018-07-23T11:59:06.542Z,22.71
2018-07-23T12:01:36.157Z,22.97
2018-07-23T12:04:10.405Z,23.16
2018-07-23T12:06:35.204Z,23.18
2018-07-23T12:09:07.342Z,23.05
2018-07-23T12:11:37.216Z,23.00
2018-07-23T12:14:06.955Z,23.31
2018-07-23T12:16:37.199Z,23.38
2018-07-23T12:19:07.431Z,23.50
2018-07-23T12:21:36.895Z,23.29
2018-07-23T12:24:06.501Z,23.36
2018-07-23T12:26:36.013Z,23.22
2018-07-23T12:29:06.676Z,23.13
2018-07-23T12:31:36.148Z,23.20
2018-07-23T12:34:06.469Z,22.86
2018-07-23T12:36:36.396Z,23.08
2018-07-23T12:39:09.100Z,23.16
2018-07-23T12:41:38.857Z,23.28
2018-07-23T12:44:08.433Z,23.45
2018-07-23T12:46:38.241Z,23.62
2018-07-23T12:49:08.078Z,23.78
2018-07-23T12:51:37.797Z,23.49
2018-07-23T12:54:07.641Z,23.60
2018-07-23T12:56:37.372Z,23.76
2018-07-23T12:59:06.779Z,23.76
2018-07-23T13:01:36.727Z,23.93
2018-07-23T13:04:05.998Z,24.07
2018-07-23T13:06:35.461Z,24.01
2018-07-23T13:09:07.360Z,23.83
2018-07-23T13:11:36.792Z,24.07
2018-07-23T13:14:06.490Z,24.19
2018-07-23T13:16:36.078Z,23.94
2018-07-23T13:19:05.533Z,24.21
2018-07-23T13:21:35.327Z,23.95
2018-07-23T13:24:05.007Z,24.12
2018-07-23T13:26:34.541Z,24.05
2018-07-23T13:29:04.505Z,24.37
2018-07-23T13:31:34.155Z,24.17
2018-07-23T13:34:04.231Z,24.30
2018-07-23T13:36:33.692Z,24.48
2018-07-23T13:39:03.344Z,24.76
2018-07-23T13:41:33.042Z,24.86
2018-07-23T13:44:02.404Z,24.95
2018-07-23T13:46:31.970Z,24.71
2018-07-23T13:49:01.759Z,24.56
2018-07-23T13:51:31.073Z,24.54
2018-07-23T13:54:00.580Z,24.66
2018-07-23T13:56:30.144Z,24.56
2018-07-23T13:58:59.356Z,24.67
2018-07-23T14:01:29.096Z,24.41
2018-07-23T14:03:58.678Z,24.38
2018-07-23T14:06:28.700Z,24.43
2018-07-23T14:08:58.564Z,24.31
2018-07-23T14:11:28.471Z,24.45
2018-07-23T14:13:57.826Z,24.61
2018-07-23T14:16:28.002Z,24.54
2018-07-23T14:18:57.776Z,24.17
2018-07-23T14:21:27.621Z,24.39
2018-07-23T14:23:57.388Z,24.58
2018-07-23T14:27:31.396Z,24.67
2018-07-23T14:30:01.448Z,24.61
2018-07-23T14:32:31.283Z,24.85
2018-07-23T14:35:00.777Z,24.95
2018-07-23T14:37:30.236Z,24.73
2018-07-23T14:39:59.748Z,24.76
2018-07-23T14:42:29.193Z,24.87
2018-07-23T14:44:58.831Z,24.70
2018-07-23T14:47:29.579Z,24.81
2018-07-23T14:49:59.063Z,24.80
2018-07-23T14:52:28.612Z,24.55
2018-07-23T14:54:58.349Z,24.48
2018-07-23T14:57:27.933Z,24.28
2018-07-23T14:59:57.532Z,24.29
2018-07-23T15:02:28.114Z,24.52
2018-07-23T15:04:57.777Z,24.48
2018-07-23T15:07:27.642Z,24.32
2018-07-23T15:09:57.528Z,23.94
2018-07-23T15:12:27.583Z,24.49
2018-07-23T15:14:57.024Z,24.68
2018-07-23T15:17:26.916Z,24.65
2018-07-23T15:19:56.574Z,24.62
2018-07-23T15:22:27.341Z,24.73
2018-07-23T15:24:57.489Z,24.89
2018-07-23T15:27:26.949Z,24.86
2018-07-23T15:29:56.823Z,24.68
2018-07-23T15:32:26.582Z,24.51
2018-07-23T15:34:56.053Z,24.62
2018-07-23T15:37:25.859Z,24.66
2018-07-23T15:39:55.697Z,24.69
2018-07-23T15:42:25.245Z,24.51
2018-07-23T15:44:54.968Z,24.70
2018-07-23T15:47:24.563Z,24.66
2018-07-23T15:49:53.876Z,24.51
2018-07-23T15:52:23.687Z,24.25
2018-07-23T15:54:53.457Z,24.43
2018-07-23T15:57:22.952Z,24.43
2018-07-23T15:59:52.621Z,24.60
2018-07-23T16:02:22.496Z,24.48
2018-07-23T16:04:51.971Z,24.62
2018-07-23T16:07:21.785Z,24.49
2018-07-23T16:09:51.317Z,24.22
2018-07-23T16:12:20.764Z,24.46
2018-07-23T16:14:50.518Z,24.57
2018-07-23T16:17:20.282Z,24.19
2018-07-23T16:19:49.573Z,24.32
2018-07-23T16:22:19.349Z,24.27
2018-07-23T16:24:49.273Z,24.13
2018-07-23T16:27:19.027Z,24.22
2018-07-23T16:29:48.864Z,24.34
2018-07-23T16:32:18.484Z,24.14
2018-07-23T16:34:47.901Z,23.86
2018-07-23T16:37:17.724Z,23.83
2018-07-23T16:39:47.405Z,24.03
2018-07-23T16:42:16.550Z,23.83
2018-07-23T16:44:46.657Z,23.91
2018-07-23T16:47:16.263Z,23.85
2018-07-23T16:49:45.670Z,23.87
2018-07-23T16:52:15.229Z,23.49
2018-07-23T16:54:44.886Z,23.55
2018-07-23T16:57:14.448Z,23.63
2018-07-23T16:59:44.203Z,23.18
2018-07-23T17:02:13.848Z,23.19
2018-07-23T17:04:43.176Z,23.36
2018-07-23T17:07:19.459Z,23.26
2018-07-23T17:09:48.963Z,23.33
2018-07-23T17:12:18.368Z,23.39
2018-07-23T17:14:47.909Z,23.42
2018-07-23T17:17:17.361Z,23.38
2018-07-23T17:19:46.953Z,23.29
2018-07-23T17:22:16.689Z,23.28
2018-07-23T17:24:46.173Z,22.98
2018-07-23T17:27:15.685Z,22.77
2018-07-23T17:29:45.277Z,22.74
2018-07-23T17:32:14.451Z,22.79
2018-07-23T17:34:43.947Z,22.90
2018-07-23T17:37:13.327Z,22.98
2018-07-23T17:39:42.804Z,22.80
2018-07-23T17:42:12.383Z,22.64
2018-07-23T17:44:41.781Z,22.70
2018-07-23T17:47:11.158Z,22.68
2018-07-23T17:49:41.078Z,22.58
2018-07-23T17:52:10.633Z,22.48
2018-07-23T17:54:40.136Z,22.51
2018-07-23T17:57:09.925Z,22.49
2018-07-23T17:59:39.520Z,22.54
2018-07-23T18:02:08.942Z,22.50
2018-07-23T18:04:38.756Z,22.58
2018-07-23T18:07:08.498Z,22.54
2018-07-23T18:09:37.757Z,22.52
2018-07-23T18:12:07.566Z,22.55
2018-07-23T18:14:37.693Z,22.54
2018-07-23T18:17:07.180Z,22.41
2018-07-23T18:19:36.589Z,22.30
2018-07-23T18:22:06.518Z,22.35
2018-07-23T18:24:36.197Z,22.35
2018-07-23T18:27:05.482Z,22.31
2018-07-23T18:29:35.538Z,22.22
2018-07-23T18:32:04.998Z,22.28
2018-07-23T18:34:34.795Z,22.23
2018-07-23T18:37:05.422Z,22.23
2018-07-23T18:39:34.814Z,22.09
2018-07-23T18:42:04.382Z,22.09
2018-07-23T18:44:34.055Z,22.01
2018-07-23T18:47:03.523Z,21.81
2018-07-23T18:49:44.881Z,21.73
2018-07-23T18:52:15.506Z,21.83
2018-07-23T18:54:46.179Z,21.78
2018-07-23T18:57:15.594Z,21.79
2018-07-23T18:59:45.039Z,21.72
2018-07-23T19:02:16.222Z,21.74
2018-07-23T19:04:45.871Z,21.69
2018-07-23T19:07:16.162Z,21.67
2018-07-23T19:09:45.849Z,21.63
2018-07-23T19:12:15.311Z,21.66
2018-07-23T19:14:44.902Z,21.66
2018-07-23T19:17:15.406Z,21.61
2018-07-23T19:19:44.949Z,21.44
2018-07-23T19:22:14.502Z,21.48
2018-07-23T19:24:44.375Z,21.53
2018-07-23T19:27:14.092Z,21.45
2018-07-23T19:29:43.862Z,21.36
2018-07-23T19:32:13.698Z,21.37
2018-07-23T19:34:43.460Z,21.40
2018-07-23T19:37:12.852Z,21.46
2018-07-23T19:39:42.502Z,21.41
2018-07-23T19:42:12.086Z,21.31
2018-07-23T19:44:41.622Z,21.33
2018-07-23T19:47:11.325Z,21.32
2018-07-23T19:49:41.305Z,21.39
2018-07-23T19:52:10.883Z,21.17
2018-07-23T19:54:41.053Z,21.26
2018-07-23T19:57:10.484Z,21.22
2018-07-23T19:59:39.909Z,21.25
2018-07-23T20:02:09.990Z,21.28
2018-07-23T20:04:39.556Z,21.30
2018-07-23T20:07:09.321Z,21.37
2018-07-23T20:09:39.096Z,21.32
2018-07-23T20:12:08.531Z,21.30
2018-07-23T20:14:37.935Z,21.32
2018-07-23T20:17:07.897Z,21.35
2018-07-23T20:19:37.304Z,21.31
2018-07-23T20:22:06.589Z,21.26
2018-07-23T20:24:36.881Z,21.21
2018-07-23T20:27:06.397Z,21.20
2018-07-23T20:29:35.941Z,21.19
2018-07-23T20:32:06.494Z,21.21
2018-07-23T20:34:35.821Z,21.12
2018-07-23T20:37:05.948Z,21.12
2018-07-23T20:39:35.616Z,21.10
2018-07-23T20:42:05.038Z,21.06
2018-07-23T20:44:34.648Z,21.04
2018-07-23T20:47:04.650Z,21.02
2018-07-23T20:49:34.188Z,20.98
2018-07-23T20:52:04.180Z,20.94
2018-07-23T20:54:33.792Z,20.96
2018-07-23T20:57:03.731Z,20.91
2018-07-23T20:59:33.234Z,20.86
2018-07-23T21:02:04.009Z,20.84
2018-07-23T21:04:33.613Z,20.85
2018-07-23T21:07:03.106Z,20.86
2018-07-23T21:09:33.026Z,20.84
2018-07-23T21:12:02.868Z,20.88
2018-07-23T21:14:32.283Z,20.90
2018-07-23T21:17:02.160Z,20.83
2018-07-23T21:19:31.712Z,20.81
2018-07-23T21:22:01.343Z,20.80
2018-07-23T21:24:31.199Z,20.77
2018-07-23T21:27:00.560Z,20.78
2018-07-23T21:29:30.192Z,20.78
2018-07-23T21:32:00.200Z,20.77
2018-07-23T21:34:29.784Z,20.77
2018-07-23T21:36:59.137Z,20.78
2018-07-23T21:39:29.308Z,20.75
2018-07-23T21:41:58.908Z,20.75
2018-07-23T21:44:28.676Z,20.70
2018-07-23T21:46:58.228Z,20.68
2018-07-23T21:49:27.641Z,20.69
2018-07-23T21:51:57.435Z,20.70
2018-07-23T21:54:26.993Z,20.75
2018-07-23T21:56:56.605Z,20.72
2018-07-23T21:59:25.891Z,19.78
2018-07-23T22:01:55.459Z,20.70
2018-07-23T22:04:25.286Z,20.68
2018-07-23T22:06:54.682Z,20.66
2018-07-23T22:09:24.400Z,20.69
2018-07-23T22:11:54.349Z,20.70
2018-07-23T22:14:23.866Z,20.74
2018-07-23T22:16:53.654Z,20.70
2018-07-23T22:19:23.025Z,20.70
2018-07-23T22:21:52.421Z,20.66
2018-07-23T22:24:22.849Z,20.72
2018-07-23T22:26:52.371Z,20.70
2018-07-23T22:29:22.184Z,20.64
2018-07-23T22:31:51.735Z,20.71
2018-07-23T22:34:21.085Z,20.73
2018-07-23T22:36:50.690Z,20.70
2018-07-23T22:39:20.331Z,20.66
2018-07-23T22:41:49.787Z,20.62
2018-07-23T22:44:19.666Z,20.65
2018-07-23T22:46:49.236Z,20.71
2018-07-23T22:49:18.611Z,20.73
2018-07-23T22:51:48.192Z,20.72
2018-07-23T22:54:17.965Z,20.65
2018-07-23T22:56:47.247Z,20.64
2018-07-23T22:59:16.993Z,20.64
2018-07-23T23:01:46.620Z,20.63
2018-07-23T23:04:16.880Z,20.61
2018-07-23T23:06:46.512Z,20.58
2018-07-23T23:09:16.000Z,20.58
2018-07-23T23:11:45.635Z,20.61
2018-07-23T23:14:15.203Z,20.60
2018-07-23T23:16:44.883Z,20.58
2018-07-23T23:19:14.244Z,20.52
2018-07-23T23:21:43.990Z,20.53
2018-07-23T23:24:13.403Z,20.51
2018-07-23T23:26:43.019Z,20.52
2018-07-23T23:29:12.951Z,20.48
2018-07-23T23:31:42.660Z,20.46
2018-07-23T23:34:12.060Z,19.51
2018-07-23T23:36:41.763Z,20.45
2018-07-23T23:39:12.365Z,20.44
2018-07-23T23:41:42.314Z,20.44
2018-07-23T23:44:11.752Z,20.42
2018-07-23T23:46:41.767Z,20.35
2018-07-23T23:49:11.151Z,20.32
2018-07-23T23:51:40.764Z,20.28
2018-07-23T23:54:10.898Z,20.30
2018-07-23T23:56:40.496Z,20.27
2018-07-23T23:59:09.781Z,20.26
